Mesa Verde Natl Park, Colorado
Current Conditions -  °F | °C
As of 7:53 AM on Friday 24 Oct 2014 (Local Time) from KCEZ Reporting Station
Clear Clear  
Wind Chill: 27°   Ceiling: Unl
Heat Index: 33°   Visibility: 10mi
Dew Point: 28°   Wind: 7mph
Humidity: 82%   Direction: 60°ENE
Pressure: 30.36"   Gusts: NA
Location:  37.22°N, 108.5°W
Report Text: KCEZ 241353Z AUTO 06006KT 10SM CLR 01/M02 A3036 RMK AO2 SLP264 T00061022
Loading
Personal Weather Stations






























Interactive Weather Map New forecast layout! Learn more

10-Day Weather Forecast

Advertisements
Track Severe Weather on mobile